createdAt,value
2019-05-14T00:01:27.257Z,101852.45
2019-05-14T00:03:53.985Z,101847.55
2019-05-14T00:06:21.902Z,101847.08
2019-05-14T00:08:47.470Z,101845.83
2019-05-14T00:11:14.195Z,101847.41
2019-05-14T00:13:41.304Z,101856.09
2019-05-14T00:16:07.665Z,101850.26
2019-05-14T00:18:34.402Z,101846.88
2019-05-14T00:21:01.875Z,101846.55
2019-05-14T00:23:27.910Z,101838.75
2019-05-14T00:25:54.644Z,101838.89
2019-05-14T00:28:21.371Z,101843.59
2019-05-14T00:30:48.131Z,101836.43
2019-05-14T00:33:14.862Z,101830.43
2019-05-14T00:35:41.615Z,101821.47
2019-05-14T00:38:08.335Z,101823.92
2019-05-14T00:40:35.073Z,101822.17
2019-05-14T00:43:02.703Z,101826.58
2019-05-14T00:45:28.666Z,101829.71
2019-05-14T00:47:55.398Z,101820.22
2019-05-14T00:50:22.139Z,101822.19
2019-05-14T00:52:48.869Z,101824.92
2019-05-14T00:55:15.610Z,101825.30
2019-05-14T00:57:42.814Z,101831.09
2019-05-14T01:00:11.501Z,101827.59
2019-05-14T01:02:35.842Z,101827.81
2019-05-14T01:05:02.711Z,101830.78
2019-05-14T01:07:31.508Z,101822.20
2019-05-14T01:09:56.206Z,101825.30
2019-05-14T01:12:22.937Z,101823.27
2019-05-14T01:14:52.944Z,101816.95
2019-05-14T01:17:16.417Z,101812.80
2019-05-14T01:19:43.162Z,101813.25
2019-05-14T01:22:12.226Z,101814.25
2019-05-14T01:24:36.629Z,101816.76
2019-05-14T01:27:03.442Z,101805.17
2019-05-14T01:29:31.676Z,101810.71
2019-05-14T01:31:57.014Z,101805.33
2019-05-14T01:34:23.875Z,101807.05
2019-05-14T01:36:52.763Z,101812.97
2019-05-14T01:39:17.358Z,101807.34
2019-05-14T01:41:44.096Z,101807.42
2019-05-14T01:44:11.976Z,101802.25
2019-05-14T01:46:37.622Z,101800.08
2019-05-14T01:49:04.342Z,101793.54
2019-05-14T01:51:31.739Z,101799.45
2019-05-14T01:53:57.814Z,101790.34
2019-05-14T01:56:24.569Z,101786.78
2019-05-14T01:58:52.278Z,101790.20
2019-05-14T02:01:18.058Z,101786.41
2019-05-14T02:03:44.782Z,101778.78
2019-05-14T02:06:11.917Z,101776.03
2019-05-14T02:08:38.258Z,101777.32
2019-05-14T02:11:05.016Z,101776.79
2019-05-14T02:13:32.258Z,101767.83
2019-05-14T02:15:58.486Z,101782.75
2019-05-14T02:18:25.210Z,101775.91
2019-05-14T02:20:52.287Z,101782.13
2019-05-14T02:23:18.690Z,101780.73
2019-05-14T02:25:45.422Z,101771.36
2019-05-14T02:28:12.137Z,101775.15
2019-05-14T02:30:52.572Z,101767.73
2019-05-14T02:33:05.619Z,101770.80
2019-05-14T02:35:32.359Z,101773.61
2019-05-14T02:37:59.755Z,101771.90
2019-05-14T02:40:29.213Z,101774.66
2019-05-14T02:42:52.592Z,101777.54
2019-05-14T02:45:19.990Z,101780.38
2019-05-14T02:47:46.138Z,101784.25
2019-05-14T02:50:12.864Z,101781.29
2019-05-14T02:52:40.468Z,101780.30
2019-05-14T02:55:09.180Z,101773.92
2019-05-14T02:57:33.067Z,101781.91
2019-05-14T02:59:59.913Z,101773.50
2019-05-14T03:02:29.465Z,101776.13
2019-05-14T03:04:53.239Z,101779.95
2019-05-14T03:07:19.981Z,101780.87
2019-05-14T03:09:49.853Z,101772.37
2019-05-14T03:12:13.459Z,101782.23
2019-05-14T03:14:40.380Z,101775.83
2019-05-14T03:17:10.055Z,101779.12
2019-05-14T03:19:33.688Z,101774.94
2019-05-14T03:22:00.551Z,101772.84
2019-05-14T03:24:28.886Z,101775.38
2019-05-14T03:26:53.911Z,101780.08
2019-05-14T03:29:20.636Z,101783.58
2019-05-14T03:31:52.616Z,101789.55
2019-05-14T03:34:14.603Z,101790.84
2019-05-14T03:36:42.803Z,101788.12
2019-05-14T03:39:10.498Z,101790.33
2019-05-14T03:41:34.410Z,101779.92
2019-05-14T03:44:01.123Z,101780.25
2019-05-14T03:46:44.221Z,101775.15
2019-05-14T03:48:54.584Z,101773.48
2019-05-14T03:51:21.589Z,101762.70
2019-05-14T03:53:56.992Z,101764.75
2019-05-14T03:56:15.079Z,101761.95
2019-05-14T03:58:41.833Z,101757.00
2019-05-14T04:01:09.708Z,101760.13
2019-05-14T04:03:35.410Z,101757.39
2019-05-14T04:06:02.251Z,101756.02
2019-05-14T04:08:29.662Z,101754.34
2019-05-14T04:10:59.005Z,101750.77
2019-05-14T04:13:22.916Z,101759.67
2019-05-14T04:15:49.970Z,101750.11
2019-05-14T04:18:18.498Z,101755.87
2019-05-14T04:20:43.191Z,101753.99
2019-05-14T04:23:09.919Z,101755.33
2019-05-14T04:25:39.044Z,101752.08
2019-05-14T04:28:03.603Z,101747.33
2019-05-14T04:30:30.550Z,101749.54
2019-05-14T04:32:59.393Z,101740.23
2019-05-14T04:35:24.035Z,101742.45
2019-05-14T04:37:50.764Z,101734.69
2019-05-14T04:40:18.979Z,101736.39
2019-05-14T04:42:44.271Z,101738.11
2019-05-14T04:45:11.583Z,101738.83
2019-05-14T04:47:42.069Z,101738.22
2019-05-14T04:50:05.039Z,101743.45
2019-05-14T04:52:31.822Z,101747.48
2019-05-14T04:54:59.363Z,101742.05
2019-05-14T04:57:25.814Z,101741.64
2019-05-14T04:59:52.171Z,101745.11
2019-05-14T05:02:19.805Z,101744.41
2019-05-14T05:04:50.305Z,101748.87
2019-05-14T05:07:12.426Z,101745.92
2019-05-14T05:09:39.955Z,101753.44
2019-05-14T05:12:08.850Z,101749.27
2019-05-14T05:14:32.825Z,101742.98
2019-05-14T05:16:59.904Z,101756.86
2019-05-14T05:19:28.857Z,101760.84
2019-05-14T05:21:53.045Z,101753.90
2019-05-14T05:24:19.826Z,101751.43
2019-05-14T05:26:48.576Z,101752.53
2019-05-14T05:29:13.300Z,101744.50
2019-05-14T05:31:40.030Z,101739.41
2019-05-14T05:34:08.962Z,101744.71
2019-05-14T05:36:33.529Z,101744.90
2019-05-14T05:39:00.267Z,101738.77
2019-05-14T05:41:28.252Z,101748.48
2019-05-14T05:43:53.726Z,101742.87
2019-05-14T05:46:20.458Z,101738.18
2019-05-14T05:48:48.210Z,101733.80
2019-05-14T05:51:13.942Z,101740.17
2019-05-14T05:53:40.690Z,101749.26
2019-05-14T05:56:09.012Z,101735.34
2019-05-14T05:58:34.167Z,101734.22
2019-05-14T06:01:00.887Z,101731.77
2019-05-14T06:03:30.112Z,101722.12
2019-05-14T06:05:54.361Z,101721.02
2019-05-14T06:08:21.101Z,101719.11
2019-05-14T06:10:48.978Z,101712.77
2019-05-14T06:13:14.640Z,101717.39
2019-05-14T06:15:47.917Z,101718.42
2019-05-14T06:18:15.236Z,101718.16
2019-05-14T06:20:34.859Z,101716.86
2019-05-14T06:23:01.591Z,101726.59
2019-05-14T06:25:31.284Z,101727.27
2019-05-14T06:27:55.054Z,101717.47
2019-05-14T06:30:33.475Z,101720.09
2019-05-14T06:33:00.206Z,101724.22
2019-05-14T06:35:28.457Z,101717.83
2019-05-14T06:37:53.666Z,101709.45
2019-05-14T06:40:20.416Z,101695.27
2019-05-14T06:42:48.608Z,101712.89
2019-05-14T06:45:13.869Z,101709.56
2019-05-14T06:47:40.603Z,101713.75
2019-05-14T06:50:08.589Z,101707.86
2019-05-14T06:52:34.074Z,101701.91
2019-05-14T06:55:00.823Z,101706.54
2019-05-14T06:57:28.548Z,101698.84
2019-05-14T06:59:54.293Z,101693.34
2019-05-14T07:02:21.026Z,101698.97
2019-05-14T07:04:48.420Z,101695.97
2019-05-14T07:07:14.502Z,101692.81
2019-05-14T07:09:41.248Z,101692.89
2019-05-14T07:12:09.057Z,101697.67
2019-05-14T07:14:34.686Z,101703.77
2019-05-14T07:17:01.434Z,101696.30
2019-05-14T07:19:29.478Z,101682.28
2019-05-14T07:21:54.902Z,101698.36
2019-05-14T07:24:21.646Z,101684.94
2019-05-14T07:26:49.411Z,101681.22
2019-05-14T07:29:15.153Z,101682.38
2019-05-14T07:31:41.866Z,101676.66
2019-05-14T07:34:08.992Z,101675.03
2019-05-14T07:36:35.338Z,101684.54
2019-05-14T07:39:02.114Z,101672.91
2019-05-14T07:41:28.845Z,101667.86
2019-05-14T07:43:55.554Z,101669.56
2019-05-14T07:46:22.374Z,101669.80
2019-05-14T07:49:03.526Z,101673.49
2019-05-14T07:51:15.835Z,101669.93
2019-05-14T07:53:42.749Z,101668.56
2019-05-14T07:56:09.610Z,101659.88
2019-05-14T07:58:38.473Z,101653.06
2019-05-14T08:01:02.748Z,101649.63
2019-05-14T08:03:29.546Z,101640.45
2019-05-14T08:05:58.662Z,101647.78
2019-05-14T08:08:23.005Z,101653.25
2019-05-14T08:10:49.743Z,101650.64
2019-05-14T08:13:18.875Z,101643.58
2019-05-14T08:15:43.206Z,101634.22
2019-05-14T08:18:09.917Z,101636.84
2019-05-14T08:20:37.959Z,101632.24
2019-05-14T08:23:03.411Z,101642.63
2019-05-14T08:25:30.149Z,101612.91
2019-05-14T08:27:58.664Z,101621.14
2019-05-14T08:30:23.642Z,101617.47
2019-05-14T08:32:50.363Z,101623.18
2019-05-14T08:35:18.536Z,101617.01
2019-05-14T08:37:43.822Z,101614.19
2019-05-14T08:40:10.567Z,101611.23
2019-05-14T08:42:38.328Z,101608.98
2019-05-14T08:45:04.764Z,101591.29
2019-05-14T08:47:30.835Z,101590.46
2019-05-14T08:49:59.894Z,101588.31
2019-05-14T08:52:24.291Z,101573.20
2019-05-14T08:55:05.360Z,101575.21
2019-05-14T08:57:18.984Z,101584.44
2019-05-14T08:59:44.526Z,101570.84
2019-05-14T09:02:11.254Z,101564.71
2019-05-14T09:04:43.090Z,101570.62
2019-05-14T09:07:04.776Z,101541.12
2019-05-14T09:09:31.498Z,101548.45
2019-05-14T09:11:59.956Z,101548.61
2019-05-14T09:14:24.946Z,101533.97
2019-05-14T09:16:51.738Z,101531.16
2019-05-14T09:19:19.243Z,101528.79
2019-05-14T09:21:45.167Z,101520.12
2019-05-14T09:24:11.906Z,101537.41
2019-05-14T09:26:39.103Z,101526.97
2019-05-14T09:29:18.132Z,101510.58
2019-05-14T09:31:32.142Z,101497.33
2019-05-14T09:33:58.879Z,101495.75
2019-05-14T09:36:25.593Z,101492.17
2019-05-14T09:38:52.322Z,101492.02
2019-05-14T09:41:19.226Z,101497.41
2019-05-14T09:43:48.407Z,101492.05
2019-05-14T09:46:12.721Z,101496.17
2019-05-14T09:48:39.442Z,101482.94
2019-05-14T09:51:06.198Z,101482.86
2019-05-14T09:53:32.921Z,101469.13
2019-05-14T09:55:59.646Z,101470.78
2019-05-14T09:58:28.268Z,101479.75
2019-05-14T10:00:53.112Z,101467.91
2019-05-14T10:03:19.874Z,101471.42
2019-05-14T10:05:46.601Z,101468.70
2019-05-14T10:08:13.358Z,101460.41
2019-05-14T10:10:40.292Z,101476.23
2019-05-14T10:13:09.701Z,101485.38
2019-05-14T10:15:33.734Z,101474.12
2019-05-14T10:18:00.680Z,101470.19
2019-05-14T10:20:40.238Z,101467.66
2019-05-14T10:22:53.988Z,101465.02
2019-05-14T10:25:20.714Z,101461.92
2019-05-14T10:27:48.581Z,101464.30
2019-05-14T10:30:14.198Z,101447.66
2019-05-14T10:32:41.831Z,101453.66
2019-05-14T10:35:10.233Z,101453.73
2019-05-14T10:37:39.793Z,101463.47
2019-05-14T10:40:04.567Z,101462.73
2019-05-14T10:42:31.299Z,101450.30
2019-05-14T10:44:58.754Z,101447.03
2019-05-14T10:47:24.758Z,101443.00
2019-05-14T10:49:51.527Z,101467.32
2019-05-14T10:52:19.769Z,101461.23
2019-05-14T10:54:55.441Z,101449.47
2019-05-14T10:57:11.720Z,101443.44
2019-05-14T10:59:38.465Z,101453.25
2019-05-14T11:02:05.177Z,101458.58
2019-05-14T11:04:34.415Z,101438.86
2019-05-14T11:06:58.690Z,101425.61
2019-05-14T11:09:25.386Z,101419.34
2019-05-14T11:11:52.121Z,101399.00
2019-05-14T11:14:19.371Z,101413.82
2019-05-14T11:16:45.592Z,101421.11
2019-05-14T11:19:12.358Z,101413.78
2019-05-14T11:21:39.342Z,101406.95
2019-05-14T11:24:05.830Z,101390.33
2019-05-14T11:26:32.663Z,101386.19
2019-05-14T11:28:59.411Z,101388.48
2019-05-14T11:31:26.135Z,101388.30
2019-05-14T11:33:52.880Z,101373.67
2019-05-14T11:36:19.605Z,101361.50
2019-05-14T11:38:46.678Z,101359.69
2019-05-14T11:41:13.490Z,101370.40
2019-05-14T11:43:40.239Z,101387.89
2019-05-14T11:46:08.582Z,101373.05
2019-05-14T11:48:33.740Z,101373.88
2019-05-14T11:51:00.484Z,101363.80
2019-05-14T11:53:27.247Z,101351.68
2019-05-14T11:55:53.974Z,101369.44
2019-05-14T11:58:21.565Z,101366.09
2019-05-14T12:00:47.467Z,101364.33
2019-05-14T12:03:14.236Z,101358.58
2019-05-14T12:05:41.017Z,101351.78
2019-05-14T12:08:08.687Z,101330.94
2019-05-14T12:10:34.432Z,101321.66
2019-05-14T12:13:01.197Z,101325.03
2019-05-14T12:15:27.920Z,101315.73
2019-05-14T12:17:54.675Z,101338.07
2019-05-14T12:20:21.367Z,101352.20
2019-05-14T12:22:48.739Z,101331.03
2019-05-14T12:25:14.914Z,101344.38
2019-05-14T12:27:41.644Z,101345.86
2019-05-14T12:30:09.649Z,101354.24
2019-05-14T12:32:35.380Z,101356.23
2019-05-14T12:35:02.233Z,101340.61
2019-05-14T12:37:29.029Z,101336.81
2019-05-14T12:39:55.710Z,101329.63
2019-05-14T12:42:22.430Z,101315.67
2019-05-14T12:44:49.178Z,101316.33
2019-05-14T12:47:18.564Z,101325.92
2019-05-14T12:49:42.652Z,101310.52
2019-05-14T12:52:19.130Z,101308.92
2019-05-14T12:54:38.463Z,101306.88
2019-05-14T12:57:02.862Z,101310.94
2019-05-14T12:59:29.623Z,101324.27
2019-05-14T13:01:58.506Z,101315.59
2019-05-14T13:04:23.110Z,101298.92
2019-05-14T13:06:49.826Z,101305.39
2019-05-14T13:09:21.351Z,101297.47
2019-05-14T13:11:43.291Z,101294.08
2019-05-14T13:14:10.058Z,101300.05
2019-05-14T13:16:39.471Z,101289.36
2019-05-14T13:19:03.553Z,101274.67
2019-05-14T13:21:30.279Z,101274.39
2019-05-14T13:23:57.019Z,101277.62
2019-05-14T13:26:23.906Z,101269.47
2019-05-14T13:28:51.217Z,101259.55
2019-05-14T13:33:48.913Z,101275.44
2019-05-14T13:36:13.743Z,101249.29
2019-05-14T13:38:40.532Z,101248.65
2019-05-14T13:41:08.692Z,101248.67
2019-05-14T13:43:34.052Z,101232.52
2019-05-14T13:46:00.872Z,101240.89
2019-05-14T13:48:29.641Z,101245.20
2019-05-14T13:50:54.377Z,101238.28
2019-05-14T13:53:21.074Z,101237.66
2019-05-14T13:55:56.805Z,101237.50
2019-05-14T13:58:14.811Z,101227.02
2019-05-14T14:00:41.542Z,101233.16
2019-05-14T14:03:10.163Z,101247.66
2019-05-14T14:05:35.005Z,101237.14
2019-05-14T14:08:01.726Z,101243.52
2019-05-14T14:10:35.585Z,101243.97
2019-05-14T14:12:55.198Z,101231.23
2019-05-14T14:15:21.950Z,101219.20
2019-05-14T14:17:49.524Z,101212.83
2019-05-14T14:20:15.440Z,101213.39
2019-05-14T14:22:42.155Z,101209.64
2019-05-14T14:25:09.274Z,101222.52
2019-05-14T14:27:35.634Z,101217.49
2019-05-14T14:30:02.417Z,101214.05
2019-05-14T14:32:29.515Z,101211.00
2019-05-14T14:34:58.764Z,101203.54
2019-05-14T14:37:22.991Z,101210.54
2019-05-14T14:39:49.746Z,101211.47
2019-05-14T14:42:19.258Z,101218.78
2019-05-14T14:44:43.252Z,101213.73
2019-05-14T14:47:09.966Z,101221.33
2019-05-14T14:49:42.278Z,101222.94
2019-05-14T14:52:03.441Z,101218.24
2019-05-14T14:54:30.161Z,101214.45
2019-05-14T14:56:59.069Z,101218.41
2019-05-14T14:59:23.674Z,101212.33
2019-05-14T15:01:50.532Z,101210.29
2019-05-14T15:04:19.318Z,101212.09
2019-05-14T15:06:43.934Z,101205.77
2019-05-14T15:09:10.676Z,101198.64
2019-05-14T15:11:39.653Z,101207.48
2019-05-14T15:14:04.297Z,101206.98
2019-05-14T15:16:31.060Z,101204.95
2019-05-14T15:18:58.344Z,101194.61
2019-05-14T15:21:24.693Z,101189.78
2019-05-14T15:24:05.589Z,101177.73
2019-05-14T15:26:19.356Z,101188.05
2019-05-14T15:28:44.959Z,101195.12
2019-05-14T15:31:11.812Z,101189.72
2019-05-14T15:33:38.532Z,101185.38
2019-05-14T15:36:05.290Z,101184.99
2019-05-14T15:38:32.033Z,101183.97
2019-05-14T15:40:59.656Z,101190.79
2019-05-14T15:43:28.503Z,101197.84
2019-05-14T15:45:52.603Z,101210.77
2019-05-14T15:48:20.034Z,101204.89
2019-05-14T15:50:46.127Z,101202.20
2019-05-14T15:53:12.866Z,101198.38
2019-05-14T15:55:39.622Z,101180.45
2019-05-14T15:58:08.760Z,101169.27
2019-05-14T16:00:33.215Z,101156.30
2019-05-14T16:03:00.361Z,101165.06
2019-05-14T16:05:28.480Z,101158.02
2019-05-14T16:07:53.547Z,101164.38
2019-05-14T16:10:21.721Z,101159.44
2019-05-14T16:12:49.598Z,101166.81
2019-05-14T16:15:13.854Z,101155.86
2019-05-14T16:18:04.256Z,101162.02
2019-05-14T16:20:09.043Z,101157.47
2019-05-14T16:22:34.267Z,101140.26
2019-05-14T16:25:01.226Z,101150.34
2019-05-14T16:27:29.790Z,101161.73
2019-05-14T16:29:54.469Z,101151.21
2019-05-14T16:32:21.218Z,101163.06
2019-05-14T16:34:48.863Z,101156.48
2019-05-14T16:37:14.699Z,101151.16
2019-05-14T16:39:41.425Z,101161.19
2019-05-14T16:42:08.210Z,101171.44
2019-05-14T16:44:35.038Z,101171.22
2019-05-14T16:47:01.813Z,101160.60
2019-05-14T16:49:29.573Z,101171.23
2019-05-14T16:51:55.380Z,101171.51
2019-05-14T16:54:22.141Z,101171.80
2019-05-14T16:56:48.950Z,101162.74
2019-05-14T16:59:15.673Z,101159.61
2019-05-14T17:01:42.418Z,101156.56
2019-05-14T17:04:09.415Z,101137.36
2019-05-14T17:06:38.442Z,101159.98
2019-05-14T17:09:03.214Z,101160.78
2019-05-14T17:11:29.943Z,101163.83
2019-05-14T17:13:58.004Z,101153.95
2019-05-14T17:16:23.446Z,101161.98
2019-05-14T17:18:50.170Z,101166.05
2019-05-14T17:21:18.274Z,101166.63
2019-05-14T17:23:43.650Z,101158.77
2019-05-14T17:26:10.406Z,101157.17
2019-05-14T17:28:40.102Z,101166.70
2019-05-14T17:31:03.889Z,101168.94
2019-05-14T17:33:30.618Z,101172.90
2019-05-14T17:35:58.668Z,101178.42
2019-05-14T17:38:24.088Z,101172.73
2019-05-14T17:40:50.814Z,101171.50
2019-05-14T17:43:19.156Z,101174.09
2019-05-14T17:45:44.403Z,101186.59
2019-05-14T17:48:11.223Z,101192.13
2019-05-14T17:50:38.520Z,101185.95
2019-05-14T17:53:04.675Z,101183.28
2019-05-14T17:55:43.488Z,101188.75
2019-05-14T17:58:00.058Z,101182.84
2019-05-14T18:00:24.909Z,101173.84
2019-05-14T18:02:51.645Z,101182.51
2019-05-14T18:05:18.855Z,101169.65
2019-05-14T18:07:45.225Z,101169.37
2019-05-14T18:10:11.957Z,101167.28
2019-05-14T18:12:39.911Z,101177.38
2019-05-14T18:15:05.445Z,101174.55
2019-05-14T18:17:32.263Z,101171.16
2019-05-14T18:19:59.009Z,101178.25
2019-05-14T18:22:28.459Z,101183.66
2019-05-14T18:24:52.481Z,101190.03
2019-05-14T18:27:19.649Z,101194.48
2019-05-14T18:29:48.683Z,101197.35
2019-05-14T18:32:12.681Z,101199.83
2019-05-14T18:34:39.428Z,101205.28
2019-05-14T18:37:13.456Z,101207.10
2019-05-14T18:39:32.942Z,101210.52
2019-05-14T18:42:00.613Z,101213.55
2019-05-14T18:44:28.410Z,101212.09
2019-05-14T18:46:53.146Z,101221.13
2019-05-14T18:49:19.883Z,101228.86
2019-05-14T18:51:46.602Z,101221.13
2019-05-14T18:54:13.335Z,101231.11
2019-05-14T18:56:40.051Z,101224.09
2019-05-14T18:59:08.893Z,101229.66
2019-05-14T19:01:33.544Z,101239.28
2019-05-14T19:04:00.350Z,101236.78
2019-05-14T19:06:28.350Z,101236.09
2019-05-14T19:08:53.914Z,101236.61
2019-05-14T19:11:20.795Z,101244.83
2019-05-14T19:13:48.407Z,101242.13
2019-05-14T19:16:14.254Z,101243.01
2019-05-14T19:18:40.971Z,101244.19
2019-05-14T19:21:08.917Z,101240.83
2019-05-14T19:23:35.397Z,101250.75
2019-05-14T19:26:02.246Z,101259.28
2019-05-14T19:28:29.008Z,101258.48
2019-05-14T19:30:55.739Z,101253.87
2019-05-14T19:33:22.458Z,101258.15
2019-05-14T19:35:49.195Z,101261.84
2019-05-14T19:38:17.936Z,101261.61
2019-05-14T19:40:42.814Z,101265.03
2019-05-14T19:43:09.601Z,101264.56
2019-05-14T19:45:38.425Z,101265.74
2019-05-14T19:48:03.090Z,101269.77
2019-05-14T19:50:29.847Z,101273.09
2019-05-14T19:52:58.806Z,101270.13
2019-05-14T19:55:23.294Z,101270.96
2019-05-14T19:57:50.029Z,101283.36
2019-05-14T20:00:21.733Z,101288.16
2019-05-14T20:02:48.764Z,101289.64
2019-05-14T20:05:15.194Z,101299.20
2019-05-14T20:07:42.022Z,101294.52
2019-05-14T20:10:08.991Z,101289.11
2019-05-14T20:12:35.475Z,101288.97
2019-05-14T20:15:02.259Z,101288.52
2019-05-14T20:17:28.997Z,101284.83
2019-05-14T20:19:57.843Z,101285.02
2019-05-14T20:22:22.457Z,101285.61
2019-05-14T20:24:49.182Z,101289.03
2019-05-14T20:27:15.959Z,101285.56
2019-05-14T20:29:42.667Z,101278.13
2019-05-14T20:32:09.406Z,101284.23
2019-05-14T20:34:36.117Z,101281.88
2019-05-14T20:37:02.874Z,101281.73
2019-05-14T20:39:32.977Z,101280.06
2019-05-14T20:41:58.372Z,101279.04
2019-05-14T20:44:23.075Z,101279.84
2019-05-14T20:46:49.826Z,101284.83
2019-05-14T20:49:18.868Z,101281.05
2019-05-14T20:51:43.294Z,101282.55
2019-05-14T20:54:10.019Z,101285.78
2019-05-14T20:56:36.769Z,101291.72
2019-05-14T20:59:03.497Z,101290.61
2019-05-14T21:01:30.242Z,101286.55
2019-05-14T21:03:59.087Z,101284.78
2019-05-14T21:06:23.706Z,101280.75
2019-05-14T21:08:50.435Z,101286.02
2019-05-14T21:11:19.116Z,101293.15
2019-05-14T21:13:43.902Z,101289.68
2019-05-14T21:16:10.865Z,101292.75
2019-05-14T21:18:40.906Z,101289.02
2019-05-14T21:21:04.270Z,101288.31
2019-05-14T21:23:30.982Z,101293.52
2019-05-14T21:25:57.862Z,101290.09
2019-05-14T21:28:24.654Z,101290.09
2019-05-14T21:30:51.387Z,101299.58
2019-05-14T21:33:18.117Z,101298.89
2019-05-14T21:35:44.834Z,101307.79
2019-05-14T21:38:11.598Z,101306.00
2019-05-14T21:40:39.018Z,101295.84
2019-05-14T21:43:05.063Z,101288.70
2019-05-14T21:45:31.770Z,101291.71
2019-05-14T21:47:59.427Z,101294.13
2019-05-14T21:50:25.354Z,101293.46
2019-05-14T21:52:52.102Z,101290.19
2019-05-14T21:55:19.866Z,101300.14
2019-05-14T21:57:54.337Z,101297.03
2019-05-14T22:00:18.417Z,101300.03
2019-05-14T22:02:42.533Z,101301.78
2019-05-14T22:05:09.608Z,101302.98
2019-05-14T22:07:35.990Z,101299.36
2019-05-14T22:10:03.121Z,101302.17
2019-05-14T22:12:29.854Z,101303.72
2019-05-14T22:14:58.845Z,101307.66
2019-05-14T22:17:23.318Z,101310.06
2019-05-14T22:19:50.047Z,101305.86
2019-05-14T22:22:18.668Z,101304.05
2019-05-14T22:24:43.543Z,101300.75
2019-05-14T22:27:10.287Z,101293.90
2019-05-14T22:29:37.009Z,101288.80
2019-05-14T22:32:03.754Z,101282.84
2019-05-14T22:34:30.475Z,101276.81
2019-05-14T22:36:58.122Z,101276.10
2019-05-14T22:39:23.942Z,101277.67
2019-05-14T22:41:50.685Z,101282.11
2019-05-14T22:44:18.699Z,101279.30
2019-05-14T22:46:44.133Z,101282.38
2019-05-14T22:49:10.875Z,101276.48
2019-05-14T22:51:38.338Z,101284.91
2019-05-14T22:54:04.336Z,101279.97
2019-05-14T22:56:31.062Z,101280.55
2019-05-14T22:58:58.289Z,101283.90
2019-05-14T23:01:24.511Z,101279.87
2019-05-14T23:03:51.247Z,101278.23
2019-05-14T23:06:18.831Z,101279.68
2019-05-14T23:08:44.722Z,101280.73
2019-05-14T23:11:11.453Z,101284.09
2019-05-14T23:13:39.194Z,101294.72
2019-05-14T23:16:04.947Z,101288.70
2019-05-14T23:18:31.690Z,101285.69
2019-05-14T23:20:58.955Z,101284.53
2019-05-14T23:23:25.162Z,101278.86
2019-05-14T23:25:51.895Z,101277.69
2019-05-14T23:28:19.222Z,101268.66
2019-05-14T23:30:45.372Z,101276.17
2019-05-14T23:33:12.114Z,101273.96
2019-05-14T23:35:39.193Z,101268.20
2019-05-14T23:38:05.583Z,101260.03
2019-05-14T23:40:32.314Z,101263.56
2019-05-14T23:42:59.061Z,101257.30
2019-05-14T23:45:25.786Z,101260.09
2019-05-14T23:47:52.506Z,101260.86
2019-05-14T23:50:19.242Z,101259.17
2019-05-14T23:52:45.980Z,101260.84
2019-05-14T23:55:12.703Z,101260.19
2019-05-14T23:57:39.502Z,101262.50
